sensor_id;sensor_type;location;lat;lon;timestamp;pressure;altitude;pressure_sealevel;temperature;humidity
70141;BME280;57508;43.086;0.136;2022-11-11T07:30:03;96775.63;;;14.90;41.27
70141;BME280;57508;43.086;0.136;2022-11-11T07:32:29;96770.41;;;15.51;39.83
70141;BME280;57508;43.086;0.136;2022-11-11T07:34:54;96768.53;;;15.66;39.45
70141;BME280;57508;43.086;0.136;2022-11-11T07:37:19;96767.16;;;15.68;38.87
70141;BME280;57508;43.086;0.136;2022-11-11T07:39:45;96776.00;;;16.11;38.16
70141;BME280;57508;43.086;0.136;2022-11-11T07:42:10;96777.34;;;16.64;38.03
70141;BME280;57508;43.086;0.136;2022-11-11T07:44:36;96775.78;;;16.63;39.63
70141;BME280;57508;43.086;0.136;2022-11-11T07:47:01;96768.44;;;17.29;38.45
70141;BME280;57508;43.086;0.136;2022-11-11T07:49:26;96776.19;;;18.35;35.85
70141;BME280;57508;43.086;0.136;2022-11-11T07:51:52;96769.78;;;19.51;34.93
70141;BME280;57508;43.086;0.136;2022-11-11T07:54:17;96774.28;;;20.16;33.05
70141;BME280;57508;43.086;0.136;2022-11-11T07:56:43;96773.19;;;20.17;31.96
70141;BME280;57508;43.086;0.136;2022-11-11T07:59:08;96773.16;;;20.47;31.48
70141;BME280;57508;43.086;0.136;2022-11-11T08:01:34;96783.75;;;20.74;30.41
70141;BME280;57508;43.086;0.136;2022-11-11T08:03:59;96777.06;;;21.69;30.81
70141;BME280;57508;43.086;0.136;2022-11-11T08:06:24;96770.94;;;22.68;29.96
70141;BME280;57508;43.086;0.136;2022-11-11T08:08:50;96775.06;;;23.64;29.13
70141;BME280;57508;43.086;0.136;2022-11-11T08:11:16;96775.44;;;23.95;28.20
70141;BME280;57508;43.086;0.136;2022-11-11T08:13:42;96786.53;;;24.42;28.00
70141;BME280;57508;43.086;0.136;2022-11-11T08:16:13;96792.88;;;24.66;27.62
70141;BME280;57508;43.086;0.136;2022-11-11T08:18:42;96783.91;;;24.61;26.97
70141;BME280;57508;43.086;0.136;2022-11-11T08:21:07;96787.66;;;24.77;27.63
70141;BME280;57508;43.086;0.136;2022-11-11T08:23:33;96789.41;;;25.44;27.08
70141;BME280;57508;43.086;0.136;2022-11-11T08:26:00;96792.97;;;26.19;26.21
70141;BME280;57508;43.086;0.136;2022-11-11T08:28:27;96787.84;;;26.13;25.08
70141;BME280;57508;43.086;0.136;2022-11-11T08:30:53;96791.34;;;26.14;22.09
70141;BME280;57508;43.086;0.136;2022-11-11T08:33:19;96799.00;;;26.32;23.15
70141;BME280;57508;43.086;0.136;2022-11-11T08:35:44;96799.38;;;26.30;22.10
70141;BME280;57508;43.086;0.136;2022-11-11T08:38:10;96795.38;;;26.47;21.48
70141;BME280;57508;43.086;0.136;2022-11-11T08:40:35;96802.22;;;27.30;21.06
70141;BME280;57508;43.086;0.136;2022-11-11T08:43:00;96799.28;;;27.46;21.32
70141;BME280;57508;43.086;0.136;2022-11-11T08:45:26;96804.16;;;27.67;22.63
70141;BME280;57508;43.086;0.136;2022-11-11T08:47:52;96808.91;;;27.74;22.41
70141;BME280;57508;43.086;0.136;2022-11-11T08:50:17;96809.81;;;27.93;22.06
70141;BME280;57508;43.086;0.136;2022-11-11T08:52:50;96807.13;;;27.55;21.88
70141;BME280;57508;43.086;0.136;2022-11-11T08:55:16;96803.94;;;28.32;22.50
70141;BME280;57508;43.086;0.136;2022-11-11T08:57:42;96805.03;;;28.91;20.48
70141;BME280;57508;43.086;0.136;2022-11-11T09:00:09;96803.56;;;29.04;19.64
70141;BME280;57508;43.086;0.136;2022-11-11T09:02:35;96801.13;;;28.81;20.28
70141;BME280;57508;43.086;0.136;2022-11-11T09:05:00;96798.28;;;29.56;19.86
70141;BME280;57508;43.086;0.136;2022-11-11T09:07:26;96806.09;;;29.86;18.46
70141;BME280;57508;43.086;0.136;2022-11-11T09:09:52;96795.19;;;29.79;18.09
70141;BME280;57508;43.086;0.136;2022-11-11T09:12:18;96810.00;;;30.47;19.04
70141;BME280;57508;43.086;0.136;2022-11-11T09:14:44;96799.75;;;30.88;18.17
70141;BME280;57508;43.086;0.136;2022-11-11T09:17:09;96800.44;;;31.14;18.36
70141;BME280;57508;43.086;0.136;2022-11-11T09:19:35;96801.66;;;30.98;17.86
70141;BME280;57508;43.086;0.136;2022-11-11T09:22:00;96799.41;;;30.86;18.13
70141;BME280;57508;43.086;0.136;2022-11-11T09:24:25;96800.38;;;31.28;17.03
70141;BME280;57508;43.086;0.136;2022-11-11T09:26:51;96792.41;;;30.66;17.62
70141;BME280;57508;43.086;0.136;2022-11-11T09:29:17;96798.63;;;30.82;17.34
70141;BME280;57508;43.086;0.136;2022-11-11T09:31:44;96804.09;;;30.74;17.39
70141;BME280;57508;43.086;0.136;2022-11-11T09:34:10;96806.94;;;31.46;16.90
70141;BME280;57508;43.086;0.136;2022-11-11T09:36:35;96797.38;;;31.76;16.66
70141;BME280;57508;43.086;0.136;2022-11-11T09:39:01;96801.50;;;32.48;16.90
70141;BME280;57508;43.086;0.136;2022-11-11T09:52:13;96787.00;;;33.76;14.21
70141;BME280;57508;43.086;0.136;2022-11-11T09:54:48;96779.09;;;34.50;14.32
70141;BME280;57508;43.086;0.136;2022-11-11T10:00:05;96787.69;;;34.93;14.48
70141;BME280;57508;43.086;0.136;2022-11-11T10:02:42;96785.66;;;35.17;14.64
70141;BME280;57508;43.086;0.136;2022-11-11T10:05:21;96779.19;;;35.07;14.19
70141;BME280;57508;43.086;0.136;2022-11-11T10:08:04;96771.50;;;35.35;14.16
70141;BME280;57508;43.086;0.136;2022-11-11T10:10:43;96776.72;;;35.13;14.58
70141;BME280;57508;43.086;0.136;2022-11-11T10:13:14;96779.81;;;35.85;13.27
70141;BME280;57508;43.086;0.136;2022-11-11T10:18:31;96779.72;;;35.89;12.97
70141;BME280;57508;43.086;0.136;2022-11-11T10:21:00;96771.69;;;36.28;13.36
70141;BME280;57508;43.086;0.136;2022-11-11T10:23:31;96776.44;;;36.87;12.42
70141;BME280;57508;43.086;0.136;2022-11-11T10:26:19;96780.09;;;36.67;12.22
70141;BME280;57508;43.086;0.136;2022-11-11T10:28:49;96773.03;;;36.96;11.73
70141;BME280;57508;43.086;0.136;2022-11-11T10:31:20;96773.25;;;36.29;12.58
70141;BME280;57508;43.086;0.136;2022-11-11T10:33:55;96780.47;;;35.56;12.75
70141;BME280;57508;43.086;0.136;2022-11-11T10:36:23;96763.47;;;36.11;12.96
70141;BME280;57508;43.086;0.136;2022-11-11T10:39:02;96766.09;;;37.17;12.95
70141;BME280;57508;43.086;0.136;2022-11-11T10:41:32;96763.25;;;38.08;11.60
70141;BME280;57508;43.086;0.136;2022-11-11T10:44:00;96763.16;;;38.12;11.05
70141;BME280;57508;43.086;0.136;2022-11-11T10:52:01;96749.44;;;39.61;11.69
70141;BME280;57508;43.086;0.136;2022-11-11T10:54:40;96747.16;;;39.19;11.27
70141;BME280;57508;43.086;0.136;2022-11-11T10:57:24;96745.81;;;39.01;13.09
70141;BME280;57508;43.086;0.136;2022-11-11T10:59:56;96759.94;;;39.35;12.58
70141;BME280;57508;43.086;0.136;2022-11-11T11:02:58;96753.06;;;38.76;11.37
70141;BME280;57508;43.086;0.136;2022-11-11T11:06:05;96749.44;;;38.88;11.57
70141;BME280;57508;43.086;0.136;2022-11-11T11:08:37;96748.72;;;38.97;10.82
70141;BME280;57508;43.086;0.136;2022-11-11T11:11:09;96754.00;;;39.46;12.58
70141;BME280;57508;43.086;0.136;2022-11-11T11:13:42;96744.75;;;40.09;11.55
70141;BME280;57508;43.086;0.136;2022-11-11T11:16:23;96742.59;;;40.41;12.11
70141;BME280;57508;43.086;0.136;2022-11-11T11:19:25;96744.25;;;39.32;11.32
70141;BME280;57508;43.086;0.136;2022-11-11T11:21:59;96740.34;;;38.56;12.54
70141;BME280;57508;43.086;0.136;2022-11-11T11:24:29;96734.69;;;38.37;13.97
70141;BME280;57508;43.086;0.136;2022-11-11T11:27:00;96735.50;;;38.92;13.56
70141;BME280;57508;43.086;0.136;2022-11-11T11:29:33;96736.91;;;38.97;12.39
70141;BME280;57508;43.086;0.136;2022-11-11T11:35:05;96736.41;;;37.86;12.71
70141;BME280;57508;43.086;0.136;2022-11-11T11:37:30;96731.72;;;37.35;13.08
70141;BME280;57508;43.086;0.136;2022-11-11T11:40:00;96733.03;;;37.69;12.11
70141;BME280;57508;43.086;0.136;2022-11-11T11:42:31;96733.16;;;38.01;12.98
70141;BME280;57508;43.086;0.136;2022-11-11T11:53:40;96731.97;;;39.93;10.82
70141;BME280;57508;43.086;0.136;2022-11-11T12:07:11;96718.75;;;39.97;11.70
70141;BME280;57508;43.086;0.136;2022-11-11T12:10:23;96716.47;;;40.23;11.03
70141;BME280;57508;43.086;0.136;2022-11-11T12:13:03;96709.56;;;41.82;10.09
70141;BME280;57508;43.086;0.136;2022-11-11T12:15:40;96703.13;;;42.15;9.90
70141;BME280;57508;43.086;0.136;2022-11-11T12:21:13;96704.22;;;41.78;10.16
70141;BME280;57508;43.086;0.136;2022-11-11T12:24:07;96702.81;;;41.83;10.15
70141;BME280;57508;43.086;0.136;2022-11-11T12:26:48;96697.44;;;41.70;10.19
70141;BME280;57508;43.086;0.136;2022-11-11T12:32:14;96699.88;;;42.92;9.35
70141;BME280;57508;43.086;0.136;2022-11-11T12:48:39;96695.06;;;40.52;10.06
70141;BME280;57508;43.086;0.136;2022-11-11T12:51:26;96690.16;;;39.72;9.76
70141;BME280;57508;43.086;0.136;2022-11-11T12:56:42;96694.06;;;39.33;10.62
70141;BME280;57508;43.086;0.136;2022-11-11T12:59:33;96681.59;;;40.79;10.59
70141;BME280;57508;43.086;0.136;2022-11-11T13:04:55;96677.88;;;40.20;10.12
70141;BME280;57508;43.086;0.136;2022-11-11T13:10:11;96679.16;;;41.88;9.85
70141;BME280;57508;43.086;0.136;2022-11-11T13:15:21;96681.81;;;42.37;8.57
70141;BME280;57508;43.086;0.136;2022-11-11T13:17:47;96681.03;;;42.97;8.37
70141;BME280;57508;43.086;0.136;2022-11-11T13:20:32;96680.94;;;40.41;9.47
70141;BME280;57508;43.086;0.136;2022-11-11T13:22:59;96677.38;;;42.15;9.04
70141;BME280;57508;43.086;0.136;2022-11-11T13:25:28;96682.59;;;42.52;8.77
70141;BME280;57508;43.086;0.136;2022-11-11T13:28:03;96673.97;;;43.16;9.25
70141;BME280;57508;43.086;0.136;2022-11-11T13:30:38;96667.47;;;42.38;8.50
70141;BME280;57508;43.086;0.136;2022-11-11T13:33:20;96665.09;;;42.97;9.08
70141;BME280;57508;43.086;0.136;2022-11-11T13:35:54;96674.81;;;42.11;9.41
70141;BME280;57508;43.086;0.136;2022-11-11T13:38:54;96679.19;;;40.62;10.59
70141;BME280;57508;43.086;0.136;2022-11-11T13:41:25;96660.00;;;40.49;9.86
70141;BME280;57508;43.086;0.136;2022-11-11T13:43:52;96661.03;;;41.04;10.44
70141;BME280;57508;43.086;0.136;2022-11-11T13:46:41;96660.47;;;39.44;11.75
70141;BME280;57508;43.086;0.136;2022-11-11T13:49:23;96664.56;;;39.21;10.16
70141;BME280;57508;43.086;0.136;2022-11-11T13:51:57;96657.97;;;38.86;11.44
70141;BME280;57508;43.086;0.136;2022-11-11T13:57:04;96662.13;;;39.32;10.53
70141;BME280;57508;43.086;0.136;2022-11-11T13:59:34;96659.72;;;40.00;10.99
70141;BME280;57508;43.086;0.136;2022-11-11T14:02:32;96659.66;;;40.66;10.30
70141;BME280;57508;43.086;0.136;2022-11-11T14:17:58;96658.97;;;43.08;9.25
70141;BME280;57508;43.086;0.136;2022-11-11T14:20:40;96648.66;;;42.78;8.96
70141;BME280;57508;43.086;0.136;2022-11-11T14:28:41;96645.78;;;41.97;9.55
70141;BME280;57508;43.086;0.136;2022-11-11T14:33:49;96647.22;;;41.53;10.01
70141;BME280;57508;43.086;0.136;2022-11-11T14:45:00;96646.53;;;40.13;11.53
70141;BME280;57508;43.086;0.136;2022-11-11T14:47:33;96651.16;;;39.10;11.08
70141;BME280;57508;43.086;0.136;2022-11-11T14:50:00;96644.53;;;39.07;11.66
70141;BME280;57508;43.086;0.136;2022-11-11T14:52:38;96652.31;;;39.31;12.08
70141;BME280;57508;43.086;0.136;2022-11-11T14:57:41;96647.06;;;39.24;12.70
70141;BME280;57508;43.086;0.136;2022-11-11T15:00:12;96643.38;;;39.18;11.33
70141;BME280;57508;43.086;0.136;2022-11-11T15:03:24;96640.22;;;38.97;11.56
70141;BME280;57508;43.086;0.136;2022-11-11T15:06:02;96636.78;;;38.74;12.93
70141;BME280;57508;43.086;0.136;2022-11-11T15:21:35;96645.66;;;36.92;13.75
70141;BME280;57508;43.086;0.136;2022-11-11T15:26:46;96646.06;;;35.79;14.83
70141;BME280;57508;43.086;0.136;2022-11-11T15:29:28;96644.66;;;34.70;17.10
70141;BME280;57508;43.086;0.136;2022-11-11T15:34:42;96653.97;;;35.10;16.91
70141;BME280;57508;43.086;0.136;2022-11-11T15:37:12;96647.50;;;35.00;16.81
70141;BME280;57508;43.086;0.136;2022-11-11T15:39:41;96659.00;;;32.70;18.53
70141;BME280;57508;43.086;0.136;2022-11-11T15:42:23;96650.09;;;31.89;19.41
70141;BME280;57508;43.086;0.136;2022-11-11T15:44:52;96653.00;;;31.21;20.40
70141;BME280;57508;43.086;0.136;2022-11-11T15:47:19;96663.13;;;30.49;21.79
70141;BME280;57508;43.086;0.136;2022-11-11T15:49:48;96652.34;;;29.98;22.32
70141;BME280;57508;43.086;0.136;2022-11-11T15:52:28;96656.66;;;29.77;21.70
70141;BME280;57508;43.086;0.136;2022-11-11T15:54:55;96658.22;;;29.16;22.26
70141;BME280;57508;43.086;0.136;2022-11-11T15:57:21;96657.31;;;28.65;23.83
70141;BME280;57508;43.086;0.136;2022-11-11T15:59:47;96655.97;;;28.26;24.38
70141;BME280;57508;43.086;0.136;2022-11-11T16:02:18;96647.53;;;27.78;24.77
70141;BME280;57508;43.086;0.136;2022-11-11T16:05:00;96644.97;;;27.44;26.00
70141;BME280;57508;43.086;0.136;2022-11-11T16:07:41;96657.19;;;26.85;27.39
70141;BME280;57508;43.086;0.136;2022-11-11T16:10:12;96658.22;;;26.73;26.94
70141;BME280;57508;43.086;0.136;2022-11-11T16:15:09;96658.03;;;25.70;29.50
70141;BME280;57508;43.086;0.136;2022-11-11T16:17:38;96647.50;;;25.65;29.40
70141;BME280;57508;43.086;0.136;2022-11-11T16:20:14;96657.59;;;25.21;30.28
70141;BME280;57508;43.086;0.136;2022-11-11T16:22:42;96656.03;;;24.77;30.13
70141;BME280;57508;43.086;0.136;2022-11-11T16:25:18;96652.47;;;24.73;29.79
70141;BME280;57508;43.086;0.136;2022-11-11T16:27:45;96658.31;;;24.75;29.53
70141;BME280;57508;43.086;0.136;2022-11-11T16:30:27;96668.75;;;24.17;31.59
70141;BME280;57508;43.086;0.136;2022-11-11T16:32:54;96663.22;;;24.49;30.82
70141;BME280;57508;43.086;0.136;2022-11-11T16:35:24;96659.81;;;23.81;32.07
70141;BME280;57508;43.086;0.136;2022-11-11T16:37:51;96656.91;;;24.06;31.32
70141;BME280;57508;43.086;0.136;2022-11-11T16:40:25;96662.44;;;23.45;32.35
70141;BME280;57508;43.086;0.136;2022-11-11T16:42:51;96665.66;;;23.51;32.80
70141;BME280;57508;43.086;0.136;2022-11-11T16:45:19;96672.09;;;22.85;34.15
70141;BME280;57508;43.086;0.136;2022-11-11T16:47:47;96670.50;;;22.84;34.11
70141;BME280;57508;43.086;0.136;2022-11-11T16:55:38;96674.53;;;22.62;34.01
70141;BME280;57508;43.086;0.136;2022-11-11T16:58:12;96681.22;;;22.39;34.67
70141;BME280;57508;43.086;0.136;2022-11-11T17:00:40;96680.09;;;22.28;34.66
70141;BME280;57508;43.086;0.136;2022-11-11T17:03:18;96674.31;;;22.01;35.63
70141;BME280;57508;43.086;0.136;2022-11-11T17:05:59;96679.38;;;22.02;35.20
70141;BME280;57508;43.086;0.136;2022-11-11T17:10:53;96682.13;;;21.43;36.62
70141;BME280;57508;43.086;0.136;2022-11-11T17:13:19;96688.69;;;21.21;37.46
70141;BME280;57508;43.086;0.136;2022-11-11T17:15:44;96690.72;;;21.24;37.12
70141;BME280;57508;43.086;0.136;2022-11-11T17:18:09;96684.78;;;21.31;36.09
70141;BME280;57508;43.086;0.136;2022-11-11T17:20:38;96695.72;;;21.13;37.08
70141;BME280;57508;43.086;0.136;2022-11-11T17:23:04;96684.13;;;21.34;36.22
70141;BME280;57508;43.086;0.136;2022-11-11T17:25:31;96686.38;;;20.98;38.06
70141;BME280;57508;43.086;0.136;2022-11-11T17:27:56;96708.53;;;19.62;40.72
70141;BME280;57508;43.086;0.136;2022-11-11T17:30:23;96702.56;;;20.47;38.49
70141;BME280;57508;43.086;0.136;2022-11-11T17:32:48;96703.00;;;20.06;39.72
70141;BME280;57508;43.086;0.136;2022-11-11T17:35:14;96694.44;;;20.55;38.03
70141;BME280;57508;43.086;0.136;2022-11-11T17:37:39;96706.66;;;19.92;40.08
70141;BME280;57508;43.086;0.136;2022-11-11T17:40:05;96708.84;;;19.99;39.33
70141;BME280;57508;43.086;0.136;2022-11-11T17:42:32;96712.50;;;20.25;38.75
70141;BME280;57508;43.086;0.136;2022-11-11T17:44:57;96725.75;;;20.30;37.82
70141;BME280;57508;43.086;0.136;2022-11-11T17:47:23;96716.97;;;20.21;38.56
70141;BME280;57508;43.086;0.136;2022-11-11T17:49:48;96717.47;;;20.14;38.63
70141;BME280;57508;43.086;0.136;2022-11-11T17:52:15;96717.06;;;20.03;38.58
70141;BME280;57508;43.086;0.136;2022-11-11T17:54:40;96717.13;;;19.85;39.39
70141;BME280;57508;43.086;0.136;2022-11-11T17:57:06;96720.72;;;19.89;39.54
70141;BME280;57508;43.086;0.136;2022-11-11T17:59:31;96731.47;;;19.41;40.63
70141;BME280;57508;43.086;0.136;2022-11-11T18:01:56;96728.00;;;19.32;41.15
70141;BME280;57508;43.086;0.136;2022-11-11T18:04:23;96717.38;;;19.62;40.00
70141;BME280;57508;43.086;0.136;2022-11-11T18:06:48;96725.47;;;19.45;40.92
70141;BME280;57508;43.086;0.136;2022-11-11T18:09:14;96727.09;;;18.66;42.73
70141;BME280;57508;43.086;0.136;2022-11-11T18:11:39;96714.81;;;18.91;42.48
70141;BME280;57508;43.086;0.136;2022-11-11T18:14:04;96725.03;;;18.98;42.14
70141;BME280;57508;43.086;0.136;2022-11-11T18:16:30;96732.47;;;18.75;42.61
70141;BME280;57508;43.086;0.136;2022-11-11T18:18:55;96735.44;;;19.26;41.25
70141;BME280;57508;43.086;0.136;2022-11-11T18:21:28;96740.97;;;19.30;40.94
70141;BME280;57508;43.086;0.136;2022-11-11T18:23:54;96745.34;;;19.35;40.61
70141;BME280;57508;43.086;0.136;2022-11-11T18:26:20;96734.50;;;19.22;41.14
70141;BME280;57508;43.086;0.136;2022-11-11T18:28:45;96732.78;;;19.17;41.20
70141;BME280;57508;43.086;0.136;2022-11-11T18:31:12;96735.16;;;19.10;41.11
70141;BME280;57508;43.086;0.136;2022-11-11T18:33:39;96735.59;;;18.41;42.91
70141;BME280;57508;43.086;0.136;2022-11-11T18:36:11;96727.91;;;18.66;42.28
70141;BME280;57508;43.086;0.136;2022-11-11T18:38:36;96732.44;;;18.57;42.59
70141;BME280;57508;43.086;0.136;2022-11-11T18:41:11;96748.50;;;18.39;43.34
70141;BME280;57508;43.086;0.136;2022-11-11T18:43:41;96737.78;;;18.31;43.42
70141;BME280;57508;43.086;0.136;2022-11-11T18:46:29;96735.09;;;18.39;43.40
70141;BME280;57508;43.086;0.136;2022-11-11T18:48:57;96725.84;;;18.63;42.26
70141;BME280;57508;43.086;0.136;2022-11-11T18:51:23;96723.97;;;18.90;41.15
70141;BME280;57508;43.086;0.136;2022-11-11T18:53:50;96717.59;;;18.15;43.25
70141;BME280;57508;43.086;0.136;2022-11-11T18:56:21;96722.84;;;18.38;43.28
70141;BME280;57508;43.086;0.136;2022-11-11T18:58:52;96727.56;;;18.33;43.44
70141;BME280;57508;43.086;0.136;2022-11-11T19:01:20;96731.34;;;18.49;43.17
70141;BME280;57508;43.086;0.136;2022-11-11T19:03:52;96706.91;;;18.24;43.26
70141;BME280;57508;43.086;0.136;2022-11-11T19:06:18;96702.38;;;18.43;42.53
70141;BME280;57508;43.086;0.136;2022-11-11T19:08:48;96701.75;;;18.46;42.22
70141;BME280;57508;43.086;0.136;2022-11-11T19:11:14;96708.63;;;17.71;44.82
70141;BME280;57508;43.086;0.136;2022-11-11T19:13:39;96707.56;;;18.30;42.88
70141;BME280;57508;43.086;0.136;2022-11-11T19:16:12;96724.59;;;17.94;44.47
70141;BME280;57508;43.086;0.136;2022-11-11T19:18:39;96707.84;;;18.20;43.63
70141;BME280;57508;43.086;0.136;2022-11-11T19:21:06;96715.06;;;18.10;43.56
70141;BME280;57508;43.086;0.136;2022-11-11T19:23:32;96716.44;;;18.08;43.79
70141;BME280;57508;43.086;0.136;2022-11-11T19:25:58;96706.91;;;18.24;42.43
70141;BME280;57508;43.086;0.136;2022-11-11T19:28:24;96716.28;;;18.04;42.76
70141;BME280;57508;43.086;0.136;2022-11-11T19:30:49;96721.91;;;17.53;44.42
70141;BME280;57508;43.086;0.136;2022-11-11T19:33:14;96721.69;;;18.13;43.14
70141;BME280;57508;43.086;0.136;2022-11-11T19:35:40;96722.56;;;17.59;45.24
70141;BME280;57508;43.086;0.136;2022-11-11T19:38:05;96709.75;;;17.78;44.53
70141;BME280;57508;43.086;0.136;2022-11-11T19:40:31;96714.03;;;17.88;43.80
70141;BME280;57508;43.086;0.136;2022-11-11T19:42:56;96710.22;;;18.21;43.17
70141;BME280;57508;43.086;0.136;2022-11-11T19:45:22;96712.16;;;17.98;43.67
70141;BME280;57508;43.086;0.136;2022-11-11T19:47:49;96709.44;;;18.21;42.93
70141;BME280;57508;43.086;0.136;2022-11-11T19:50:15;96717.22;;;17.27;44.57
70141;BME280;57508;43.086;0.136;2022-11-11T19:52:42;96716.28;;;18.04;43.08
70141;BME280;57508;43.086;0.136;2022-11-11T19:55:08;96719.03;;;17.81;44.01
70141;BME280;57508;43.086;0.136;2022-11-11T19:57:34;96726.63;;;17.24;45.92
70141;BME280;57508;43.086;0.136;2022-11-11T19:59:59;96723.78;;;17.84;43.90
70141;BME280;57508;43.086;0.136;2022-11-11T20:02:25;96733.34;;;17.76;43.95
70141;BME280;57508;43.086;0.136;2022-11-11T20:04:50;96726.59;;;18.20;42.75
70141;BME280;57508;43.086;0.136;2022-11-11T20:07:16;96734.97;;;17.95;43.30
70141;BME280;57508;43.086;0.136;2022-11-11T20:09:41;96723.16;;;17.87;43.47
70141;BME280;57508;43.086;0.136;2022-11-11T20:12:06;96725.34;;;17.85;43.92
70141;BME280;57508;43.086;0.136;2022-11-11T20:14:32;96740.78;;;17.57;44.55
70141;BME280;57508;43.086;0.136;2022-11-11T20:16:57;96743.75;;;17.55;43.81
70141;BME280;57508;43.086;0.136;2022-11-11T20:19:23;96746.34;;;17.37;44.54
70141;BME280;57508;43.086;0.136;2022-11-11T20:21:48;96733.19;;;17.82;43.65
70141;BME280;57508;43.086;0.136;2022-11-11T20:24:13;96752.13;;;17.94;43.47
70141;BME280;57508;43.086;0.136;2022-11-11T20:26:39;96761.53;;;17.28;45.05
70141;BME280;57508;43.086;0.136;2022-11-11T20:29:04;96760.63;;;17.10;45.46
70141;BME280;57508;43.086;0.136;2022-11-11T20:31:30;96755.28;;;17.10;44.85
70141;BME280;57508;43.086;0.136;2022-11-11T20:33:55;96750.78;;;18.14;42.46
70141;BME280;57508;43.086;0.136;2022-11-11T20:36:21;96751.47;;;17.57;44.21
70141;BME280;57508;43.086;0.136;2022-11-11T20:38:47;96770.03;;;17.53;44.09
70141;BME280;57508;43.086;0.136;2022-11-11T20:41:14;96753.56;;;18.00;42.94
70141;BME280;57508;43.086;0.136;2022-11-11T20:43:40;96754.88;;;17.80;42.65
70141;BME280;57508;43.086;0.136;2022-11-11T20:46:13;96762.34;;;17.60;43.08
70141;BME280;57508;43.086;0.136;2022-11-11T20:48:40;96752.81;;;17.68;43.74
70141;BME280;57508;43.086;0.136;2022-11-11T20:51:10;96767.69;;;17.60;44.41
70141;BME280;57508;43.086;0.136;2022-11-11T20:53:36;96767.50;;;17.57;43.85
70141;BME280;57508;43.086;0.136;2022-11-11T20:56:16;96771.38;;;17.42;43.65
70141;BME280;57508;43.086;0.136;2022-11-11T20:58:42;96760.59;;;17.56;43.42
70141;BME280;57508;43.086;0.136;2022-11-11T21:01:10;96760.69;;;17.19;44.88
70141;BME280;57508;43.086;0.136;2022-11-11T21:03:36;96751.34;;;18.02;42.53
70141;BME280;57508;43.086;0.136;2022-11-11T21:06:16;96756.34;;;17.86;42.67
70141;BME280;57508;43.086;0.136;2022-11-11T21:08:44;96768.88;;;17.77;42.64
70141;BME280;57508;43.086;0.136;2022-11-11T21:11:11;96768.44;;;17.29;44.04
70141;BME280;57508;43.086;0.136;2022-11-11T21:13:37;96764.59;;;16.98;44.53
70141;BME280;57508;43.086;0.136;2022-11-11T21:16:11;96757.13;;;17.55;43.08
70141;BME280;57508;43.086;0.136;2022-11-11T21:18:37;96757.59;;;17.89;41.88
70141;BME280;57508;43.086;0.136;2022-11-11T21:23:31;96749.28;;;17.27;43.47
70141;BME280;57508;43.086;0.136;2022-11-11T21:26:04;96760.47;;;17.06;44.33
70141;BME280;57508;43.086;0.136;2022-11-11T21:28:36;96758.72;;;17.56;42.86
70141;BME280;57508;43.086;0.136;2022-11-11T21:31:12;96764.00;;;17.01;44.93
70141;BME280;57508;43.086;0.136;2022-11-11T21:33:40;96757.59;;;17.25;44.08
70141;BME280;57508;43.086;0.136;2022-11-11T21:36:10;96758.00;;;17.42;43.47
70141;BME280;57508;43.086;0.136;2022-11-11T21:38:37;96762.38;;;17.37;43.05
70141;BME280;57508;43.086;0.136;2022-11-11T21:43:33;96755.47;;;17.68;42.37
70141;BME280;57508;43.086;0.136;2022-11-11T21:46:01;96762.00;;;17.53;42.81
70141;BME280;57508;43.086;0.136;2022-11-11T21:48:27;96761.25;;;17.93;42.11
70141;BME280;57508;43.086;0.136;2022-11-11T21:50:59;96766.75;;;17.56;42.71
70141;BME280;57508;43.086;0.136;2022-11-11T21:53:24;96768.81;;;17.59;42.33
70141;BME280;57508;43.086;0.136;2022-11-11T21:55:49;96765.84;;;17.38;43.03
70141;BME280;57508;43.086;0.136;2022-11-11T21:58:15;96763.63;;;17.63;42.15
70141;BME280;57508;43.086;0.136;2022-11-11T22:00:40;96763.56;;;17.54;42.27
70141;BME280;57508;43.086;0.136;2022-11-11T22:03:06;96768.50;;;17.61;42.42
70141;BME280;57508;43.086;0.136;2022-11-11T22:05:31;96758.06;;;17.27;42.95
70141;BME280;57508;43.086;0.136;2022-11-11T22:07:56;96777.38;;;17.47;42.72
70141;BME280;57508;43.086;0.136;2022-11-11T22:10:22;96774.47;;;16.75;45.25
70141;BME280;57508;43.086;0.136;2022-11-11T22:12:47;96782.63;;;17.30;43.39
70141;BME280;57508;43.086;0.136;2022-11-11T22:15:13;96779.34;;;17.64;42.79
70141;BME280;57508;43.086;0.136;2022-11-11T22:17:38;96780.66;;;17.76;42.21
70141;BME280;57508;43.086;0.136;2022-11-11T22:20:04;96792.31;;;17.80;42.55
70141;BME280;57508;43.086;0.136;2022-11-11T22:22:29;96785.00;;;17.95;41.98
70141;BME280;57508;43.086;0.136;2022-11-11T22:24:55;96780.22;;;18.14;41.26
70141;BME280;57508;43.086;0.136;2022-11-11T22:27:21;96784.91;;;18.09;41.31
70141;BME280;57508;43.086;0.136;2022-11-11T22:29:46;96792.22;;;17.62;42.55
70141;BME280;57508;43.086;0.136;2022-11-11T22:32:11;96800.59;;;18.01;41.69
70141;BME280;57508;43.086;0.136;2022-11-11T22:34:37;96804.66;;;17.90;41.95
70141;BME280;57508;43.086;0.136;2022-11-11T22:37:02;96797.09;;;17.60;42.26
70141;BME280;57508;43.086;0.136;2022-11-11T22:39:28;96801.00;;;17.54;42.56
70141;BME280;57508;43.086;0.136;2022-11-11T22:41:53;96801.28;;;17.75;41.94
70141;BME280;57508;43.086;0.136;2022-11-11T22:44:19;96800.44;;;17.66;41.52
70141;BME280;57508;43.086;0.136;2022-11-11T22:46:45;96808.09;;;17.59;41.76
70141;BME280;57508;43.086;0.136;2022-11-11T22:49:11;96801.78;;;17.55;41.75
70141;BME280;57508;43.086;0.136;2022-11-11T22:51:40;96798.47;;;17.49;42.00
70141;BME280;57508;43.086;0.136;2022-11-11T22:54:06;96809.31;;;17.07;43.18
70141;BME280;57508;43.086;0.136;2022-11-11T22:56:33;96826.97;;;16.66;44.51
70141;BME280;57508;43.086;0.136;2022-11-11T22:58:59;96832.91;;;16.62;44.48
70141;BME280;57508;43.086;0.136;2022-11-11T23:01:29;96820.47;;;17.09;42.66
70141;BME280;57508;43.086;0.136;2022-11-11T23:03:56;96804.56;;;16.10;45.51
70141;BME280;57508;43.086;0.136;2022-11-11T23:06:24;96822.22;;;16.76;43.76